sensor_id;sensor_type;location;lat;lon;timestamp;pressure;altitude;pressure_sealevel;temperature;humidity
20119;BME280;10220;42.716;23.306;2023-03-11T00:01:18;93481.31;;;10.34;100.00
20119;BME280;10220;42.716;23.306;2023-03-11T00:03:44;93484.38;;;10.31;100.00
20119;BME280;10220;42.716;23.306;2023-03-11T00:06:09;93482.94;;;10.40;100.00
20119;BME280;10220;42.716;23.306;2023-03-11T00:08:37;93485.38;;;10.04;100.00
20119;BME280;10220;42.716;23.306;2023-03-11T00:11:03;93471.56;;;10.20;100.00
20119;BME280;10220;42.716;23.306;2023-03-11T00:13:29;93473.34;;;10.14;100.00
20119;BME280;10220;42.716;23.306;2023-03-11T00:15:55;93474.34;;;9.92;100.00
20119;BME280;10220;42.716;23.306;2023-03-11T00:18:21;93452.94;;;9.96;100.00
20119;BME280;10220;42.716;23.306;2023-03-11T00:20:51;93449.88;;;11.46;100.00
20119;BME280;10220;42.716;23.306;2023-03-11T00:23:18;93455.53;;;11.74;100.00
20119;BME280;10220;42.716;23.306;2023-03-11T00:25:49;93449.91;;;11.97;100.00
20119;BME280;10220;42.716;23.306;2023-03-11T00:28:15;93446.22;;;12.74;100.00
20119;BME280;10220;42.716;23.306;2023-03-11T00:30:42;93442.63;;;13.39;100.00
20119;BME280;10220;42.716;23.306;2023-03-11T00:33:12;93443.16;;;13.31;100.00
20119;BME280;10220;42.716;23.306;2023-03-11T00:35:38;93440.56;;;13.31;100.00
20119;BME280;10220;42.716;23.306;2023-03-11T00:38:06;93431.22;;;13.15;100.00
20119;BME280;10220;42.716;23.306;2023-03-11T00:40:33;93435.88;;;13.13;100.00
20119;BME280;10220;42.716;23.306;2023-03-11T00:42:59;93448.88;;;13.08;100.00
20119;BME280;10220;42.716;23.306;2023-03-11T00:45:25;93443.25;;;12.16;100.00
20119;BME280;10220;42.716;23.306;2023-03-11T00:47:52;93437.19;;;12.91;100.00
20119;BME280;10220;42.716;23.306;2023-03-11T00:50:29;93441.44;;;12.21;100.00
20119;BME280;10220;42.716;23.306;2023-03-11T00:52:55;93427.47;;;11.66;100.00
20119;BME280;10220;42.716;23.306;2023-03-11T00:55:23;93412.72;;;12.72;100.00
20119;BME280;10220;42.716;23.306;2023-03-11T00:57:54;93419.22;;;13.29;100.00
20119;BME280;10220;42.716;23.306;2023-03-11T01:00:24;93407.03;;;13.25;100.00
20119;BME280;10220;42.716;23.306;2023-03-11T01:02:51;93406.00;;;12.96;100.00
20119;BME280;10220;42.716;23.306;2023-03-11T01:05:19;93400.19;;;12.34;100.00
20119;BME280;10220;42.716;23.306;2023-03-11T01:07:46;93393.47;;;12.33;100.00
20119;BME280;10220;42.716;23.306;2023-03-11T01:10:14;93397.44;;;11.80;100.00
20119;BME280;10220;42.716;23.306;2023-03-11T01:12:40;93408.59;;;11.85;100.00
20119;BME280;10220;42.716;23.306;2023-03-11T01:15:06;93395.97;;;11.99;100.00
20119;BME280;10220;42.716;23.306;2023-03-11T01:17:33;93408.66;;;11.95;100.00
20119;BME280;10220;42.716;23.306;2023-03-11T01:20:01;93393.66;;;12.17;100.00
20119;BME280;10220;42.716;23.306;2023-03-11T01:22:29;93360.72;;;12.28;100.00
20119;BME280;10220;42.716;23.306;2023-03-11T01:24:54;93344.13;;;12.43;100.00
20119;BME280;10220;42.716;23.306;2023-03-11T01:27:20;93357.31;;;12.17;100.00
20119;BME280;10220;42.716;23.306;2023-03-11T01:29:45;93345.44;;;12.81;100.00
20119;BME280;10220;42.716;23.306;2023-03-11T01:32:11;93345.69;;;12.74;100.00
20119;BME280;10220;42.716;23.306;2023-03-11T01:34:36;93337.38;;;12.82;100.00
20119;BME280;10220;42.716;23.306;2023-03-11T01:37:02;93339.47;;;12.45;100.00
20119;BME280;10220;42.716;23.306;2023-03-11T01:39:28;93334.47;;;12.09;100.00
20119;BME280;10220;42.716;23.306;2023-03-11T01:41:53;93328.47;;;11.28;100.00
20119;BME280;10220;42.716;23.306;2023-03-11T01:44:20;93341.13;;;11.71;100.00
20119;BME280;10220;42.716;23.306;2023-03-11T01:49:18;93353.50;;;11.54;100.00
20119;BME280;10220;42.716;23.306;2023-03-11T01:51:47;93357.91;;;11.12;100.00
20119;BME280;10220;42.716;23.306;2023-03-11T01:54:21;93365.97;;;11.15;100.00
20119;BME280;10220;42.716;23.306;2023-03-11T01:56:49;93380.97;;;11.50;100.00
20119;BME280;10220;42.716;23.306;2023-03-11T01:59:18;93373.47;;;12.49;100.00
20119;BME280;10220;42.716;23.306;2023-03-11T02:01:53;93354.63;;;11.82;100.00
20119;BME280;10220;42.716;23.306;2023-03-11T02:04:22;93358.72;;;11.59;100.00
20119;BME280;10220;42.716;23.306;2023-03-11T02:06:48;93371.91;;;11.52;100.00
20119;BME280;10220;42.716;23.306;2023-03-11T02:09:13;93362.31;;;12.48;100.00
20119;BME280;10220;42.716;23.306;2023-03-11T02:11:39;93345.47;;;11.60;100.00
20119;BME280;10220;42.716;23.306;2023-03-11T02:14:06;93351.38;;;11.05;100.00
20119;BME280;10220;42.716;23.306;2023-03-11T02:16:32;93385.97;;;11.66;100.00
20119;BME280;10220;42.716;23.306;2023-03-11T02:18:59;93376.31;;;11.52;100.00
20119;BME280;10220;42.716;23.306;2023-03-11T02:21:32;93391.25;;;11.40;100.00
20119;BME280;10220;42.716;23.306;2023-03-11T02:29:16;93395.19;;;11.01;100.00
20119;BME280;10220;42.716;23.306;2023-03-11T02:31:43;93394.59;;;10.94;100.00
20119;BME280;10220;42.716;23.306;2023-03-11T02:34:15;93402.31;;;10.58;100.00
20119;BME280;10220;42.716;23.306;2023-03-11T02:36:43;93390.84;;;10.44;100.00
20119;BME280;10220;42.716;23.306;2023-03-11T02:39:08;93390.69;;;10.60;100.00
20119;BME280;10220;42.716;23.306;2023-03-11T02:41:37;93398.41;;;10.55;100.00
20119;BME280;10220;42.716;23.306;2023-03-11T02:44:08;93385.59;;;10.39;100.00
20119;BME280;10220;42.716;23.306;2023-03-11T02:46:36;93389.72;;;10.35;100.00
20119;BME280;10220;42.716;23.306;2023-03-11T02:49:03;93395.09;;;10.29;100.00
20119;BME280;10220;42.716;23.306;2023-03-11T02:51:29;93386.63;;;10.12;100.00
20119;BME280;10220;42.716;23.306;2023-03-11T02:53:58;93379.34;;;10.35;100.00
20119;BME280;10220;42.716;23.306;2023-03-11T02:56:24;93370.75;;;10.03;100.00
20119;BME280;10220;42.716;23.306;2023-03-11T02:58:49;93372.63;;;10.34;100.00
20119;BME280;10220;42.716;23.306;2023-03-11T03:01:15;93369.94;;;10.51;100.00
20119;BME280;10220;42.716;23.306;2023-03-11T03:03:40;93387.91;;;11.03;100.00
20119;BME280;10220;42.716;23.306;2023-03-11T03:06:06;93380.06;;;10.88;100.00
20119;BME280;10220;42.716;23.306;2023-03-11T03:08:31;93391.53;;;11.02;100.00
20119;BME280;10220;42.716;23.306;2023-03-11T03:10:57;93400.53;;;10.90;100.00
20119;BME280;10220;42.716;23.306;2023-03-11T03:13:25;93393.59;;;11.00;100.00
20119;BME280;10220;42.716;23.306;2023-03-11T03:15:50;93406.59;;;11.10;100.00
20119;BME280;10220;42.716;23.306;2023-03-11T03:18:16;93404.59;;;11.17;100.00
20119;BME280;10220;42.716;23.306;2023-03-11T03:20:41;93399.47;;;11.22;100.00
20119;BME280;10220;42.716;23.306;2023-03-11T03:23:06;93408.53;;;11.24;100.00
20119;BME280;10220;42.716;23.306;2023-03-11T03:25:32;93403.75;;;11.07;100.00
20119;BME280;10220;42.716;23.306;2023-03-11T03:27:57;93398.78;;;11.00;100.00
20119;BME280;10220;42.716;23.306;2023-03-11T03:30:23;93413.91;;;11.13;100.00
20119;BME280;10220;42.716;23.306;2023-03-11T03:32:48;93405.16;;;11.24;100.00
20119;BME280;10220;42.716;23.306;2023-03-11T03:35:14;93397.59;;;11.17;100.00
20119;BME280;10220;42.716;23.306;2023-03-11T03:37:40;93407.53;;;11.72;100.00
20119;BME280;10220;42.716;23.306;2023-03-11T03:40:06;93405.84;;;12.12;100.00
20119;BME280;10220;42.716;23.306;2023-03-11T03:42:34;93412.59;;;12.08;100.00
20119;BME280;10220;42.716;23.306;2023-03-11T03:45:00;93407.66;;;12.06;100.00
20119;BME280;10220;42.716;23.306;2023-03-11T03:47:26;93386.47;;;11.63;100.00
20119;BME280;10220;42.716;23.306;2023-03-11T03:49:51;93404.47;;;11.84;100.00
20119;BME280;10220;42.716;23.306;2023-03-11T03:52:17;93408.88;;;11.79;100.00
20119;BME280;10220;42.716;23.306;2023-03-11T03:54:42;93403.88;;;11.68;100.00
20119;BME280;10220;42.716;23.306;2023-03-11T03:57:07;93408.00;;;11.69;100.00
20119;BME280;10220;42.716;23.306;2023-03-11T03:59:33;93401.09;;;11.79;100.00
20119;BME280;10220;42.716;23.306;2023-03-11T04:01:59;93406.28;;;11.79;100.00
20119;BME280;10220;42.716;23.306;2023-03-11T04:04:24;93398.22;;;11.85;100.00
20119;BME280;10220;42.716;23.306;2023-03-11T04:06:50;93388.09;;;11.33;100.00
20119;BME280;10220;42.716;23.306;2023-03-11T04:09:15;93395.94;;;11.48;100.00
20119;BME280;10220;42.716;23.306;2023-03-11T04:11:40;93389.94;;;11.32;100.00
20119;BME280;10220;42.716;23.306;2023-03-11T04:14:06;93375.66;;;11.30;100.00
20119;BME280;10220;42.716;23.306;2023-03-11T04:16:31;93385.53;;;11.38;100.00
20119;BME280;10220;42.716;23.306;2023-03-11T04:18:57;93393.81;;;11.30;100.00
20119;BME280;10220;42.716;23.306;2023-03-11T04:21:22;93405.47;;;11.32;100.00
20119;BME280;10220;42.716;23.306;2023-03-11T04:23:48;93405.91;;;11.19;100.00
20119;BME280;10220;42.716;23.306;2023-03-11T04:26:14;93398.31;;;11.08;100.00
20119;BME280;10220;42.716;23.306;2023-03-11T04:28:39;93402.09;;;11.32;100.00
20119;BME280;10220;42.716;23.306;2023-03-11T04:31:05;93406.00;;;11.34;100.00
20119;BME280;10220;42.716;23.306;2023-03-11T04:33:30;93407.38;;;11.47;100.00
20119;BME280;10220;42.716;23.306;2023-03-11T04:35:56;93406.53;;;11.41;100.00
20119;BME280;10220;42.716;23.306;2023-03-11T04:38:22;93410.19;;;11.40;100.00
20119;BME280;10220;42.716;23.306;2023-03-11T04:40:47;93414.56;;;11.35;100.00
20119;BME280;10220;42.716;23.306;2023-03-11T04:43:13;93411.72;;;11.41;100.00
20119;BME280;10220;42.716;23.306;2023-03-11T04:45:39;93403.81;;;11.16;100.00
20119;BME280;10220;42.716;23.306;2023-03-11T04:48:05;93410.41;;;11.34;100.00
20119;BME280;10220;42.716;23.306;2023-03-11T04:50:30;93404.75;;;11.42;100.00
20119;BME280;10220;42.716;23.306;2023-03-11T04:52:56;93416.88;;;11.31;100.00
20119;BME280;10220;42.716;23.306;2023-03-11T04:55:21;93413.91;;;11.49;100.00
20119;BME280;10220;42.716;23.306;2023-03-11T04:57:47;93409.16;;;11.46;100.00
20119;BME280;10220;42.716;23.306;2023-03-11T05:00:13;93411.97;;;11.35;100.00
20119;BME280;10220;42.716;23.306;2023-03-11T05:02:40;93415.84;;;11.32;100.00
20119;BME280;10220;42.716;23.306;2023-03-11T05:05:07;93424.31;;;11.23;100.00
20119;BME280;10220;42.716;23.306;2023-03-11T05:07:33;93428.84;;;11.42;100.00
20119;BME280;10220;42.716;23.306;2023-03-11T05:09:58;93422.97;;;11.11;100.00
20119;BME280;10220;42.716;23.306;2023-03-11T05:12:24;93439.09;;;11.22;100.00
20119;BME280;10220;42.716;23.306;2023-03-11T05:14:49;93430.25;;;11.18;100.00
20119;BME280;10220;42.716;23.306;2023-03-11T05:17:15;93433.38;;;11.20;100.00
20119;BME280;10220;42.716;23.306;2023-03-11T05:19:43;93420.88;;;11.12;100.00
20119;BME280;10220;42.716;23.306;2023-03-11T05:22:09;93434.13;;;11.16;100.00
20119;BME280;10220;42.716;23.306;2023-03-11T05:24:34;93442.97;;;11.20;100.00
20119;BME280;10220;42.716;23.306;2023-03-11T05:27:00;93452.44;;;11.41;100.00
20119;BME280;10220;42.716;23.306;2023-03-11T05:29:26;93452.66;;;11.34;100.00
20119;BME280;10220;42.716;23.306;2023-03-11T05:31:51;93456.72;;;11.25;100.00
20119;BME280;10220;42.716;23.306;2023-03-11T05:34:17;93464.03;;;11.28;100.00
20119;BME280;10220;42.716;23.306;2023-03-11T05:36:43;93473.84;;;11.26;100.00
20119;BME280;10220;42.716;23.306;2023-03-11T05:39:09;93461.72;;;11.01;100.00
20119;BME280;10220;42.716;23.306;2023-03-11T05:41:35;93475.63;;;11.21;100.00
20119;BME280;10220;42.716;23.306;2023-03-11T05:44:01;93477.69;;;11.19;100.00
20119;BME280;10220;42.716;23.306;2023-03-11T05:46:26;93477.63;;;11.14;100.00
20119;BME280;10220;42.716;23.306;2023-03-11T05:48:52;93482.06;;;11.13;100.00
20119;BME280;10220;42.716;23.306;2023-03-11T05:51:17;93482.63;;;11.20;100.00
20119;BME280;10220;42.716;23.306;2023-03-11T05:53:44;93458.22;;;11.12;100.00
20119;BME280;10220;42.716;23.306;2023-03-11T05:56:13;93484.34;;;11.46;100.00
20119;BME280;10220;42.716;23.306;2023-03-11T05:58:38;93481.53;;;11.16;100.00
20119;BME280;10220;42.716;23.306;2023-03-11T06:01:15;93508.44;;;11.42;100.00
20119;BME280;10220;42.716;23.306;2023-03-11T06:03:41;93517.97;;;11.31;100.00
20119;BME280;10220;42.716;23.306;2023-03-11T06:06:09;93514.81;;;11.24;100.00
20119;BME280;10220;42.716;23.306;2023-03-11T06:08:35;93515.66;;;11.35;100.00
20119;BME280;10220;42.716;23.306;2023-03-11T06:11:08;93520.13;;;11.44;100.00
20119;BME280;10220;42.716;23.306;2023-03-11T06:13:35;93523.47;;;11.40;100.00
20119;BME280;10220;42.716;23.306;2023-03-11T06:16:01;93528.75;;;11.50;100.00
20119;BME280;10220;42.716;23.306;2023-03-11T06:18:27;93528.19;;;11.48;100.00
20119;BME280;10220;42.716;23.306;2023-03-11T06:20:53;93532.72;;;11.31;100.00
20119;BME280;10220;42.716;23.306;2023-03-11T06:23:22;93530.84;;;11.53;100.00
20119;BME280;10220;42.716;23.306;2023-03-11T06:26:15;93526.13;;;11.81;100.00
20119;BME280;10220;42.716;23.306;2023-03-11T06:28:45;93524.75;;;11.73;100.00
20119;BME280;10220;42.716;23.306;2023-03-11T06:31:16;93526.03;;;11.71;100.00
20119;BME280;10220;42.716;23.306;2023-03-11T06:33:42;93530.78;;;12.30;100.00
20119;BME280;10220;42.716;23.306;2023-03-11T06:36:07;93541.25;;;11.94;100.00
20119;BME280;10220;42.716;23.306;2023-03-11T06:38:34;93530.72;;;12.20;100.00
20119;BME280;10220;42.716;23.306;2023-03-11T06:41:00;93535.25;;;12.44;100.00
20119;BME280;10220;42.716;23.306;2023-03-11T06:43:27;93538.25;;;12.17;100.00
20119;BME280;10220;42.716;23.306;2023-03-11T06:45:52;93537.81;;;11.83;100.00
20119;BME280;10220;42.716;23.306;2023-03-11T06:48:18;93542.22;;;11.88;100.00
20119;BME280;10220;42.716;23.306;2023-03-11T06:50:43;93534.22;;;11.89;100.00
20119;BME280;10220;42.716;23.306;2023-03-11T06:53:09;93541.88;;;12.77;100.00
20119;BME280;10220;42.716;23.306;2023-03-11T06:55:35;93542.81;;;12.51;100.00
20119;BME280;10220;42.716;23.306;2023-03-11T06:58:00;93538.59;;;12.30;100.00
20119;BME280;10220;42.716;23.306;2023-03-11T07:00:26;93544.50;;;12.26;100.00
20119;BME280;10220;42.716;23.306;2023-03-11T07:02:52;93545.41;;;11.95;100.00
20119;BME280;10220;42.716;23.306;2023-03-11T07:05:18;93546.94;;;11.91;100.00
20119;BME280;10220;42.716;23.306;2023-03-11T07:07:43;93528.06;;;11.02;100.00
20119;BME280;10220;42.716;23.306;2023-03-11T07:10:09;93530.47;;;11.08;100.00
20119;BME280;10220;42.716;23.306;2023-03-11T07:12:35;93528.03;;;10.97;100.00
20119;BME280;10220;42.716;23.306;2023-03-11T07:15:00;93522.94;;;11.69;100.00
20119;BME280;10220;42.716;23.306;2023-03-11T07:17:26;93520.34;;;12.20;100.00
20119;BME280;10220;42.716;23.306;2023-03-11T07:19:52;93527.66;;;13.14;100.00
20119;BME280;10220;42.716;23.306;2023-03-11T07:22:17;93522.56;;;12.53;100.00
20119;BME280;10220;42.716;23.306;2023-03-11T07:24:47;93531.41;;;12.62;100.00
20119;BME280;10220;42.716;23.306;2023-03-11T07:27:13;93518.78;;;12.85;100.00
20119;BME280;10220;42.716;23.306;2023-03-11T07:29:39;93515.47;;;13.34;100.00
20119;BME280;10220;42.716;23.306;2023-03-11T07:32:06;93510.72;;;14.10;100.00
20119;BME280;10220;42.716;23.306;2023-03-11T07:34:32;93508.16;;;13.46;100.00
20119;BME280;10220;42.716;23.306;2023-03-11T07:36:58;93497.50;;;13.48;100.00
20119;BME280;10220;42.716;23.306;2023-03-11T07:39:23;93496.97;;;13.11;100.00
20119;BME280;10220;42.716;23.306;2023-03-11T07:41:49;93502.47;;;13.39;100.00
20119;BME280;10220;42.716;23.306;2023-03-11T07:44:17;93489.44;;;13.54;100.00
20119;BME280;10220;42.716;23.306;2023-03-11T07:46:43;93494.91;;;13.18;100.00
20119;BME280;10220;42.716;23.306;2023-03-11T07:49:09;93491.72;;;12.81;100.00
20119;BME280;10220;42.716;23.306;2023-03-11T07:51:37;93483.41;;;12.74;100.00
20119;BME280;10220;42.716;23.306;2023-03-11T07:54:03;93473.25;;;12.83;100.00
20119;BME280;10220;42.716;23.306;2023-03-11T07:56:31;93488.34;;;12.81;100.00
20119;BME280;10220;42.716;23.306;2023-03-11T07:59:01;93447.53;;;12.66;100.00
20119;BME280;10220;42.716;23.306;2023-03-11T08:01:28;93452.78;;;13.06;100.00
20119;BME280;10220;42.716;23.306;2023-03-11T08:04:01;93470.47;;;12.99;100.00
20119;BME280;10220;42.716;23.306;2023-03-11T08:06:29;93455.13;;;13.27;100.00
20119;BME280;10220;42.716;23.306;2023-03-11T08:09:00;93448.88;;;13.43;100.00
20119;BME280;10220;42.716;23.306;2023-03-11T08:11:26;93435.00;;;13.77;100.00
20119;BME280;10220;42.716;23.306;2023-03-11T08:13:52;93438.03;;;14.14;100.00
20119;BME280;10220;42.716;23.306;2023-03-11T08:16:20;93419.50;;;14.20;100.00
20119;BME280;10220;42.716;23.306;2023-03-11T08:18:47;93427.81;;;14.27;100.00
20119;BME280;10220;42.716;23.306;2023-03-11T08:21:16;93422.91;;;14.16;100.00
20119;BME280;10220;42.716;23.306;2023-03-11T08:23:42;93411.47;;;14.17;100.00
20119;BME280;10220;42.716;23.306;2023-03-11T08:26:10;93418.41;;;14.31;100.00
20119;BME280;10220;42.716;23.306;2023-03-11T08:28:36;93410.16;;;14.19;100.00
20119;BME280;10220;42.716;23.306;2023-03-11T08:31:02;93415.47;;;13.80;100.00
20119;BME280;10220;42.716;23.306;2023-03-11T08:33:38;93405.31;;;13.88;100.00
20119;BME280;10220;42.716;23.306;2023-03-11T08:36:04;93382.94;;;13.82;100.00
20119;BME280;10220;42.716;23.306;2023-03-11T08:38:29;93392.28;;;13.88;100.00
20119;BME280;10220;42.716;23.306;2023-03-11T08:40:55;93409.88;;;14.21;100.00
20119;BME280;10220;42.716;23.306;2023-03-11T08:43:20;93397.22;;;14.48;100.00
20119;BME280;10220;42.716;23.306;2023-03-11T08:45:45;93400.81;;;14.08;100.00
20119;BME280;10220;42.716;23.306;2023-03-11T08:48:11;93389.88;;;14.11;100.00
20119;BME280;10220;42.716;23.306;2023-03-11T08:50:40;93398.78;;;14.49;100.00
20119;BME280;10220;42.716;23.306;2023-03-11T08:53:05;93384.50;;;14.79;100.00
20119;BME280;10220;42.716;23.306;2023-03-11T08:55:31;93384.03;;;15.06;99.99
20119;BME280;10220;42.716;23.306;2023-03-11T08:57:56;93374.19;;;15.31;96.14
20119;BME280;10220;42.716;23.306;2023-03-11T09:00:22;93377.91;;;15.20;94.30
20119;BME280;10220;42.716;23.306;2023-03-11T09:02:48;93364.59;;;15.22;90.71
20119;BME280;10220;42.716;23.306;2023-03-11T09:05:13;93380.34;;;15.12;90.27
20119;BME280;10220;42.716;23.306;2023-03-11T09:07:39;93370.94;;;15.11;90.79
20119;BME280;10220;42.716;23.306;2023-03-11T09:10:05;93374.53;;;15.48;89.26
20119;BME280;10220;42.716;23.306;2023-03-11T09:12:31;93367.09;;;15.36;89.28
20119;BME280;10220;42.716;23.306;2023-03-11T09:14:56;93364.19;;;15.38;90.61
20119;BME280;10220;42.716;23.306;2023-03-11T09:17:22;93374.00;;;15.23;90.19
20119;BME280;10220;42.716;23.306;2023-03-11T09:19:47;93360.13;;;15.27;89.64
20119;BME280;10220;42.716;23.306;2023-03-11T09:22:13;93366.03;;;15.37;90.14
20119;BME280;10220;42.716;23.306;2023-03-11T09:24:39;93369.91;;;15.40;89.54
20119;BME280;10220;42.716;23.306;2023-03-11T09:27:07;93367.63;;;15.57;92.04
20119;BME280;10220;42.716;23.306;2023-03-11T09:29:33;93373.53;;;15.90;90.30
20119;BME280;10220;42.716;23.306;2023-03-11T09:31:58;93352.03;;;15.98;89.40
20119;BME280;10220;42.716;23.306;2023-03-11T09:34:24;93353.03;;;16.02;86.24
20119;BME280;10220;42.716;23.306;2023-03-11T09:36:49;93353.09;;;15.97;78.85
20119;BME280;10220;42.716;23.306;2023-03-11T09:39:15;93358.56;;;15.78;83.58
20119;BME280;10220;42.716;23.306;2023-03-11T09:41:52;93353.09;;;15.74;83.35
20119;BME280;10220;42.716;23.306;2023-03-11T09:44:29;93366.44;;;15.49;83.27
20119;BME280;10220;42.716;23.306;2023-03-11T09:55:38;93339.78;;;15.94;88.03
20119;BME280;10220;42.716;23.306;2023-03-11T10:00:50;93333.03;;;16.11;81.52
20119;BME280;10220;42.716;23.306;2023-03-11T10:03:34;93335.41;;;16.49;72.84
20119;BME280;10220;42.716;23.306;2023-03-11T10:06:24;93325.31;;;16.43;77.97
20119;BME280;10220;42.716;23.306;2023-03-11T10:09:02;93355.63;;;16.62;74.56
20119;BME280;10220;42.716;23.306;2023-03-11T10:17:27;93360.50;;;16.69;76.21
20119;BME280;10220;42.716;23.306;2023-03-11T10:20:02;93354.22;;;16.70;67.79
20119;BME280;10220;42.716;23.306;2023-03-11T10:23:16;93359.25;;;16.80;73.76
20119;BME280;10220;42.716;23.306;2023-03-11T10:25:23;93372.06;;;16.26;74.80
20119;BME280;10220;42.716;23.306;2023-03-11T10:28:07;93356.28;;;15.48;86.09
20119;BME280;10220;42.716;23.306;2023-03-11T10:30:56;93363.53;;;15.97;85.52
20119;BME280;10220;42.716;23.306;2023-03-11T10:33:27;93358.25;;;16.26;85.96
20119;BME280;10220;42.716;23.306;2023-03-11T10:35:59;93370.88;;;16.14;86.54
20119;BME280;10220;42.716;23.306;2023-03-11T10:38:32;93357.00;;;15.77;84.82
20119;BME280;10220;42.716;23.306;2023-03-11T10:41:04;93353.34;;;15.78;86.06
20119;BME280;10220;42.716;23.306;2023-03-11T10:43:36;93356.72;;;15.27;82.11
20119;BME280;10220;42.716;23.306;2023-03-11T10:46:14;93351.91;;;15.38;85.38
20119;BME280;10220;42.716;23.306;2023-03-11T10:48:42;93357.94;;;15.06;84.67
20119;BME280;10220;42.716;23.306;2023-03-11T10:51:37;93379.94;;;14.95;88.26
20119;BME280;10220;42.716;23.306;2023-03-11T10:54:03;93382.06;;;13.19;100.00
20119;BME280;10220;42.716;23.306;2023-03-11T10:56:39;93382.34;;;12.92;100.00
20119;BME280;10220;42.716;23.306;2023-03-11T10:59:23;93384.66;;;13.19;100.00
20119;BME280;10220;42.716;23.306;2023-03-11T11:04:30;93396.09;;;13.18;100.00
20119;BME280;10220;42.716;23.306;2023-03-11T11:06:57;93394.03;;;13.25;100.00
20119;BME280;10220;42.716;23.306;2023-03-11T11:09:23;93387.94;;;13.59;100.00
20119;BME280;10220;42.716;23.306;2023-03-11T11:12:13;93378.84;;;13.61;100.00
20119;BME280;10220;42.716;23.306;2023-03-11T11:17:29;93368.22;;;14.16;100.00
20119;BME280;10220;42.716;23.306;2023-03-11T11:19:56;93367.41;;;14.20;100.00
20119;BME280;10220;42.716;23.306;2023-03-11T11:22:23;93364.41;;;14.47;100.00
20119;BME280;10220;42.716;23.306;2023-03-11T11:24:54;93347.53;;;14.72;100.00
20119;BME280;10220;42.716;23.306;2023-03-11T11:27:27;93343.28;;;14.81;99.84
20119;BME280;10220;42.716;23.306;2023-03-11T11:32:34;93336.34;;;15.00;100.00
20119;BME280;10220;42.716;23.306;2023-03-11T11:37:28;93325.72;;;15.48;100.00
20119;BME280;10220;42.716;23.306;2023-03-11T11:42:45;93316.41;;;15.14;100.00
20119;BME280;10220;42.716;23.306;2023-03-11T11:45:15;93317.28;;;14.76;98.99
20119;BME280;10220;42.716;23.306;2023-03-11T11:47:48;93312.19;;;14.90;100.00
20119;BME280;10220;42.716;23.306;2023-03-11T11:50:40;93296.78;;;15.22;100.00
20119;BME280;10220;42.716;23.306;2023-03-11T11:55:49;93316.72;;;15.59;89.79
20119;BME280;10220;42.716;23.306;2023-03-11T11:58:17;93296.88;;;15.82;87.69
20119;BME280;10220;42.716;23.306;2023-03-11T12:03:33;93291.50;;;15.91;78.34
20119;BME280;10220;42.716;23.306;2023-03-11T12:06:28;93278.53;;;15.63;70.70
20119;BME280;10220;42.716;23.306;2023-03-11T12:11:54;93266.41;;;16.32;75.33
20119;BME280;10220;42.716;23.306;2023-03-11T12:17:03;93260.66;;;16.48;66.87
20119;BME280;10220;42.716;23.306;2023-03-11T12:20:00;93259.59;;;16.49;66.81
20119;BME280;10220;42.716;23.306;2023-03-11T12:30:51;93271.06;;;16.35;58.86
20119;BME280;10220;42.716;23.306;2023-03-11T12:35:57;93267.28;;;15.86;65.65
20119;BME280;10220;42.716;23.306;2023-03-11T12:38:29;93266.31;;;15.82;67.41
20119;BME280;10220;42.716;23.306;2023-03-11T12:41:25;93269.69;;;15.83;66.31
20119;BME280;10220;42.716;23.306;2023-03-11T12:46:17;93262.66;;;16.01;60.32
20119;BME280;10220;42.716;23.306;2023-03-11T12:48:47;93271.41;;;16.10;64.23
20119;BME280;10220;42.716;23.306;2023-03-11T12:53:50;93272.81;;;15.85;69.35
20119;BME280;10220;42.716;23.306;2023-03-11T13:01:59;93290.44;;;15.92;65.97
20119;BME280;10220;42.716;23.306;2023-03-11T13:04:32;93306.38;;;15.73;65.36
20119;BME280;10220;42.716;23.306;2023-03-11T13:07:33;93315.59;;;15.14;74.27
20119;BME280;10220;42.716;23.306;2023-03-11T13:12:41;93322.94;;;15.40;74.45
20119;BME280;10220;42.716;23.306;2023-03-11T13:17:56;93358.47;;;14.74;89.45
20119;BME280;10220;42.716;23.306;2023-03-11T13:23:17;93396.47;;;13.84;96.71
20119;BME280;10220;42.716;23.306;2023-03-11T13:46:34;93445.47;;;10.74;100.00
20119;BME280;10220;42.716;23.306;2023-03-11T13:49:05;93445.31;;;10.59;100.00
20119;BME280;10220;42.716;23.306;2023-03-11T13:51:44;93445.97;;;10.45;100.00
20119;BME280;10220;42.716;23.306;2023-03-11T13:56:49;93428.34;;;10.73;100.00
20119;BME280;10220;42.716;23.306;2023-03-11T13:59:25;93412.53;;;10.69;100.00
20119;BME280;10220;42.716;23.306;2023-03-11T14:02:15;93387.78;;;10.52;100.00
20119;BME280;10220;42.716;23.306;2023-03-11T14:04:47;93401.84;;;10.92;100.00
20119;BME280;10220;42.716;23.306;2023-03-11T14:07:24;93410.63;;;10.91;100.00
20119;BME280;10220;42.716;23.306;2023-03-11T14:09:51;93378.41;;;10.77;100.00
20119;BME280;10220;42.716;23.306;2023-03-11T14:12:16;93410.94;;;11.00;100.00
20119;BME280;10220;42.716;23.306;2023-03-11T14:14:44;93421.31;;;11.00;100.00
20119;BME280;10220;42.716;23.306;2023-03-11T14:17:15;93423.22;;;11.14;100.00
20119;BME280;10220;42.716;23.306;2023-03-11T14:19:41;93391.19;;;10.89;100.00
20119;BME280;10220;42.716;23.306;2023-03-11T14:22:07;93412.25;;;10.97;100.00
20119;BME280;10220;42.716;23.306;2023-03-11T14:24:34;93439.41;;;11.26;100.00
20119;BME280;10220;42.716;23.306;2023-03-11T14:27:02;93441.47;;;11.29;100.00
20119;BME280;10220;42.716;23.306;2023-03-11T14:29:39;93446.47;;;11.40;100.00
20119;BME280;10220;42.716;23.306;2023-03-11T14:34:47;93441.25;;;11.35;100.00